Time;durP1;ratioP1;P1;durP2;ratioP2;P2;SDS_P1;SDS_P2;PMS_P1;PMS_P2;Temp;Humidity;BMP_temperature;BMP_pressure;BME280_temperature;BME280_humidity;BME280_pressure;Samples;Min_cycle;Max_cycle;Signal;HPM_P1;HPM_P2
2022/03/13 00:00:16;;;;;;;22.02;15.43;;;;;;;;;;5027001;28;20062;-86
2022/03/13 00:02:45;;;;;;;23.77;17.52;;;;;;;;;;5010548;28;20041;-85
2022/03/13 00:05:14;;;;;;;22.65;16.75;;;;;;;;;;5010497;28;20037;-86
2022/03/13 00:07:41;;;;;;;23.73;17.05;;;;;;;;;;5011903;28;20034;-86
2022/03/13 00:10:07;;;;;;;26.13;18.05;;;;;;;;;;5029990;28;20409;-85
2022/03/13 00:12:35;;;;;;;22.42;17.33;;;;;;;;;;5030094;28;20131;-85
2022/03/13 00:15:03;;;;;;;22.80;16.05;;;;;;;;;;5030187;28;20052;-86
2022/03/13 00:17:30;;;;;;;24.33;17.98;;;;;;;;;;5030220;28;20720;-85
2022/03/13 00:19:57;;;;;;;22.77;16.63;;;;;;;;;;5029748;28;20111;-85
2022/03/13 00:22:23;;;;;;;24.13;17.38;;;;;;;;;;5029897;28;20052;-83
2022/03/13 00:24:49;;;;;;;22.73;17.40;;;;;;;;;;5030413;28;20038;-86
2022/03/13 00:27:15;;;;;;;22.83;17.17;;;;;;;;;;5012901;28;20049;-86
2022/03/13 00:29:41;;;;;;;25.50;18.27;;;;;;;;;;5026422;28;20406;-86
2022/03/13 00:32:08;;;;;;;23.65;17.20;;;;;;;;;;5035102;28;20120;-84
2022/03/13 00:34:34;;;;;;;24.05;16.52;;;;;;;;;;5017147;28;20449;-86
2022/03/13 00:37:00;;;;;;;21.58;16.55;;;;;;;;;;5026507;28;20048;-85
2022/03/13 00:39:26;;;;;;;23.35;18.08;;;;;;;;;;5009958;28;20101;-85
2022/03/13 00:41:52;;;;;;;23.80;17.63;;;;;;;;;;5026690;28;20095;-84
2022/03/13 00:44:19;;;;;;;22.88;17.10;;;;;;;;;;5026204;28;20410;-85
2022/03/13 00:46:45;;;;;;;26.17;18.08;;;;;;;;;;5026157;28;20049;-84
2022/03/13 00:49:11;;;;;;;24.08;17.75;;;;;;;;;;5026449;28;20045;-88
2022/03/13 00:51:37;;;;;;;26.05;18.25;;;;;;;;;;5018941;28;20052;-89
2022/03/13 00:54:04;;;;;;;23.33;17.45;;;;;;;;;;5030503;28;20052;-89
2022/03/13 00:56:31;;;;;;;29.02;18.02;;;;;;;;;;5030227;28;20111;-90
2022/03/13 00:58:57;;;;;;;24.85;18.30;;;;;;;;;;5032011;28;20072;-87
2022/03/13 01:01:22;;;;;;;23.25;18.52;;;;;;;;;;5034151;28;20038;-88
2022/03/13 01:03:49;;;;;;;23.60;17.52;;;;;;;;;;5033974;28;20044;-88
2022/03/13 01:06:16;;;;;;;24.88;17.73;;;;;;;;;;5034169;28;20394;-93
2022/03/13 01:08:44;;;;;;;25.40;17.58;;;;;;;;;;5034526;28;20418;-86
2022/03/13 01:11:11;;;;;;;26.65;18.35;;;;;;;;;;5034569;28;20050;-88
2022/03/13 01:13:37;;;;;;;24.77;19.10;;;;;;;;;;5033716;28;20044;-88
2022/03/13 01:16:14;;;;;;;27.73;19.67;;;;;;;;;;5034237;28;20045;-88
2022/03/13 01:18:42;;;;;;;23.85;18.02;;;;;;;;;;5034108;28;20057;-87
2022/03/13 01:21:09;;;;;;;25.95;19.23;;;;;;;;;;5033791;28;20042;-89
2022/03/13 01:23:35;;;;;;;26.42;19.88;;;;;;;;;;5018220;28;20049;-88
2022/03/13 01:26:20;;;;;;;29.42;18.65;;;;;;;;;;5033789;28;20037;-88
2022/03/13 01:28:46;;;;;;;23.77;17.95;;;;;;;;;;5034239;28;20045;-88
2022/03/13 01:31:12;;;;;;;25.02;18.67;;;;;;;;;;5024588;28;20045;-92
2022/03/13 01:33:39;;;;;;;25.65;18.17;;;;;;;;;;5014248;28;20226;-87
2022/03/13 01:36:05;;;;;;;27.35;18.13;;;;;;;;;;5030961;28;20092;-91
2022/03/13 01:38:33;;;;;;;24.15;17.15;;;;;;;;;;5029947;28;20497;-88
2022/03/13 01:40:59;;;;;;;24.10;18.00;;;;;;;;;;5029892;28;20073;-89
2022/03/13 01:43:25;;;;;;;23.80;17.75;;;;;;;;;;5030056;28;20053;-88
2022/03/13 01:45:52;;;;;;;23.45;17.55;;;;;;;;;;5013681;28;20034;-88
2022/03/13 01:48:18;;;;;;;26.48;18.38;;;;;;;;;;5030131;28;20038;-89
2022/03/13 01:50:45;;;;;;;25.92;18.13;;;;;;;;;;5013430;28;20416;-87
2022/03/13 01:53:12;;;;;;;24.33;18.00;;;;;;;;;;5029725;28;20049;-87
2022/03/13 01:55:38;;;;;;;24.08;19.42;;;;;;;;;;5029825;28;20409;-89
2022/03/13 01:58:04;;;;;;;24.23;17.67;;;;;;;;;;5013262;28;20034;-87
2022/03/13 02:00:30;;;;;;;24.55;18.65;;;;;;;;;;5030210;28;20490;-90
2022/03/13 02:02:56;;;;;;;22.88;18.10;;;;;;;;;;5029581;28;20091;-92
2022/03/13 02:05:31;;;;;;;23.63;17.98;;;;;;;;;;5013186;28;20037;-88
2022/03/13 02:07:59;;;;;;;24.35;18.10;;;;;;;;;;5029677;28;20084;-91
2022/03/13 02:10:25;;;;;;;28.25;19.27;;;;;;;;;;5014453;28;20088;-90
2022/03/13 02:12:51;;;;;;;26.35;18.50;;;;;;;;;;5041388;28;20092;-87
2022/03/13 02:15:17;;;;;;;23.70;18.25;;;;;;;;;;5032945;28;20045;-90
2022/03/13 02:17:43;;;;;;;25.38;17.60;;;;;;;;;;5032693;28;20467;-90
2022/03/13 02:20:16;;;;;;;22.83;17.48;;;;;;;;;;5032676;28;20122;-90
2022/03/13 02:22:48;;;;;;;25.02;18.67;;;;;;;;;;5032819;28;20074;-89
2022/03/13 02:25:19;;;;;;;24.65;18.80;;;;;;;;;;5032842;28;20041;-88
2022/03/13 02:27:45;;;;;;;25.65;18.40;;;;;;;;;;5032396;28;20052;-89
2022/03/13 02:30:11;;;;;;;25.58;17.95;;;;;;;;;;5023722;28;20415;-88
2022/03/13 02:32:37;;;;;;;25.65;19.25;;;;;;;;;;5013109;28;20061;-90
2022/03/13 02:35:04;;;;;;;25.77;17.63;;;;;;;;;;5029096;28;20124;-89
2022/03/13 02:37:40;;;;;;;24.02;17.45;;;;;;;;;;5029295;28;20066;-90
2022/03/13 02:40:07;;;;;;;24.50;18.17;;;;;;;;;;5012518;28;20132;-90
2022/03/13 02:42:33;;;;;;;24.98;17.58;;;;;;;;;;5012744;28;20149;-88
2022/03/13 02:45:00;;;;;;;25.73;18.45;;;;;;;;;;5012997;28;20486;-90
2022/03/13 02:47:25;;;;;;;24.60;18.90;;;;;;;;;;5029098;28;20042;-89
2022/03/13 02:49:51;;;;;;;26.40;18.02;;;;;;;;;;5038707;28;20464;-90
2022/03/13 02:52:17;;;;;;;24.35;18.23;;;;;;;;;;5032503;28;20167;-89
2022/03/13 02:54:43;;;;;;;26.73;18.77;;;;;;;;;;5015451;28;20045;-89
2022/03/13 02:57:09;;;;;;;25.67;17.90;;;;;;;;;;5012631;28;20490;-89
2022/03/13 02:59:35;;;;;;;24.48;18.55;;;;;;;;;;5012240;28;20042;-90
2022/03/13 03:02:02;;;;;;;26.23;18.35;;;;;;;;;;5041429;28;20052;-89
2022/03/13 03:04:28;;;;;;;26.10;18.40;;;;;;;;;;5031830;28;20187;-89
2022/03/13 03:06:59;;;;;;;24.23;17.90;;;;;;;;;;5032077;28;20117;-89
2022/03/13 03:09:26;;;;;;;24.38;18.13;;;;;;;;;;5032076;28;20041;-90
2022/03/13 03:11:52;;;;;;;24.48;18.33;;;;;;;;;;5019910;28;20405;-90
2022/03/13 03:14:19;;;;;;;26.48;18.58;;;;;;;;;;5028439;28;20037;-90
2022/03/13 03:16:45;;;;;;;26.70;18.52;;;;;;;;;;5028603;28;20046;-90
2022/03/13 03:19:12;;;;;;;24.15;17.40;;;;;;;;;;5028341;28;20054;-89
2022/03/13 03:21:39;;;;;;;25.55;19.70;;;;;;;;;;5011469;28;20042;-88
2022/03/13 03:24:16;;;;;;;25.60;19.25;;;;;;;;;;5028572;28;20052;-90
2022/03/13 03:26:42;;;;;;;23.58;18.02;;;;;;;;;;5028485;28;20123;-89
2022/03/13 03:29:08;;;;;;;24.80;19.17;;;;;;;;;;5028177;28;20046;-90
2022/03/13 03:31:39;;;;;;;24.65;17.95;;;;;;;;;;5011531;28;20413;-88
2022/03/13 03:34:08;;;;;;;26.25;19.88;;;;;;;;;;5027997;28;20053;-89
2022/03/13 03:36:34;;;;;;;27.23;19.27;;;;;;;;;;5027868;28;20727;-89
2022/03/13 03:39:00;;;;;;;26.40;19.08;;;;;;;;;;5011240;28;20080;-89
2022/03/13 03:41:26;;;;;;;26.70;19.27;;;;;;;;;;5027723;28;20042;-88
2022/03/13 03:43:52;;;;;;;27.55;18.52;;;;;;;;;;5028410;28;20103;-90
2022/03/13 03:46:18;;;;;;;26.10;19.55;;;;;;;;;;5030988;28;20069;-87
2022/03/13 03:48:44;;;;;;;27.40;19.95;;;;;;;;;;5030762;28;20111;-87
2022/03/13 03:51:10;;;;;;;27.52;20.60;;;;;;;;;;5030822;28;20052;-89
2022/03/13 03:53:36;;;;;;;26.63;20.15;;;;;;;;;;5030643;28;20124;-88
2022/03/13 03:56:02;;;;;;;26.88;19.88;;;;;;;;;;5011187;28;20709;-88
2022/03/13 03:58:28;;;;;;;24.58;18.85;;;;;;;;;;5027537;28;20081;-89
2022/03/13 04:00:54;;;;;;;25.08;19.30;;;;;;;;;;5021985;28;20065;-87
2022/03/13 04:03:20;;;;;;;24.27;18.92;;;;;;;;;;5030631;28;20757;-89
2022/03/13 04:05:46;;;;;;;27.52;19.50;;;;;;;;;;5030701;28;20044;-88
2022/03/13 04:08:12;;;;;;;25.02;18.92;;;;;;;;;;5030333;28;20469;-89
2022/03/13 04:10:38;;;;;;;26.10;18.77;;;;;;;;;;5030453;28;20179;-89
2022/03/13 04:13:05;;;;;;;25.67;19.05;;;;;;;;;;5030650;28;20064;-89
2022/03/13 04:15:31;;;;;;;26.02;18.23;;;;;;;;;;5028731;28;20132;-89
2022/03/13 04:17:57;;;;;;;23.83;18.63;;;;;;;;;;5010823;28;20128;-88
2022/03/13 04:20:23;;;;;;;26.05;18.25;;;;;;;;;;5026809;28;20062;-89
2022/03/13 04:22:49;;;;;;;25.95;19.45;;;;;;;;;;5026819;28;20042;-88
2022/03/13 04:25:16;;;;;;;26.23;19.95;;;;;;;;;;5044206;28;20033;-87
2022/03/13 04:27:42;;;;;;;28.85;19.35;;;;;;;;;;5030248;28;20111;-88
2022/03/13 04:30:08;;;;;;;26.00;18.73;;;;;;;;;;5030315;28;20052;-87
2022/03/13 04:32:35;;;;;;;25.58;18.30;;;;;;;;;;5016785;28;20116;-90
2022/03/13 04:35:00;;;;;;;25.88;19.13;;;;;;;;;;5027272;28;20480;-88
2022/03/13 04:37:27;;;;;;;25.52;19.60;;;;;;;;;;5030125;28;20044;-89
2022/03/13 04:39:53;;;;;;;26.55;19.08;;;;;;;;;;5029914;28;20053;-88
2022/03/13 04:42:19;;;;;;;24.55;19.38;;;;;;;;;;5030098;28;20091;-88
2022/03/13 04:44:45;;;;;;;30.55;21.08;;;;;;;;;;5030187;28;20033;-87
2022/03/13 04:47:12;;;;;;;26.45;19.85;;;;;;;;;;5026717;28;20180;-87
2022/03/13 04:49:38;;;;;;;24.33;18.08;;;;;;;;;;5014393;28;20042;-88
2022/03/13 04:52:05;;;;;;;26.50;19.17;;;;;;;;;;5010494;28;20077;-88
2022/03/13 04:54:31;;;;;;;25.23;18.42;;;;;;;;;;5010174;28;20391;-87
2022/03/13 04:56:57;;;;;;;24.73;19.10;;;;;;;;;;5010354;28;20034;-87
2022/03/13 04:59:23;;;;;;;25.98;18.27;;;;;;;;;;5010153;28;20053;-87
2022/03/13 05:01:50;;;;;;;24.85;18.90;;;;;;;;;;5010404;28;20046;-89
2022/03/13 05:04:16;;;;;;;28.65;19.80;;;;;;;;;;5010410;28;20048;-89
2022/03/13 05:06:43;;;;;;;25.40;18.08;;;;;;;;;;5010432;28;20129;-88
2022/03/13 05:09:09;;;;;;;25.13;17.98;;;;;;;;;;5010264;28;20049;-89
2022/03/13 05:11:35;;;;;;;25.88;19.25;;;;;;;;;;4993688;28;20045;-87
2022/03/13 05:14:01;;;;;;;25.00;18.75;;;;;;;;;;4993756;28;20041;-88
2022/03/13 05:16:27;;;;;;;26.63;18.83;;;;;;;;;;5024509;28;20046;-89
2022/03/13 05:18:53;;;;;;;22.80;16.50;;;;;;;;;;5010100;28;20050;-90
2022/03/13 05:21:19;;;;;;;24.80;18.25;;;;;;;;;;5003362;28;20557;-88
2022/03/13 05:23:45;;;;;;;26.00;18.27;;;;;;;;;;5030102;28;20120;-89
2022/03/13 05:26:11;;;;;;;25.42;18.35;;;;;;;;;;5029989;28;20128;-89
2022/03/13 05:28:37;;;;;;;23.73;17.08;;;;;;;;;;5029636;28;20045;-88
2022/03/13 05:31:04;;;;;;;23.55;18.08;;;;;;;;;;5026812;28;20405;-89
2022/03/13 05:33:30;;;;;;;24.45;17.67;;;;;;;;;;4993971;28;20038;-89
2022/03/13 05:35:57;;;;;;;26.25;18.08;;;;;;;;;;5009764;28;20061;-88
2022/03/13 05:38:23;;;;;;;26.17;18.67;;;;;;;;;;5010519;28;20049;-89
2022/03/13 05:40:49;;;;;;;24.55;17.50;;;;;;;;;;4993798;28;20049;-90
2022/03/13 05:43:15;;;;;;;26.42;18.88;;;;;;;;;;4993948;28;20042;-88
2022/03/13 05:45:41;;;;;;;25.90;18.63;;;;;;;;;;5017172;28;20041;-89
2022/03/13 05:48:13;;;;;;;22.95;17.15;;;;;;;;;;4999712;28;20034;-88
2022/03/13 05:50:39;;;;;;;22.10;17.05;;;;;;;;;;5018726;28;20068;-89
2022/03/13 05:53:05;;;;;;;24.33;16.88;;;;;;;;;;5005070;28;20049;-89
2022/03/13 05:55:31;;;;;;;26.77;18.92;;;;;;;;;;5004346;28;20103;-90
2022/03/13 05:57:58;;;;;;;24.88;17.67;;;;;;;;;;5016485;28;20041;-90
2022/03/13 06:00:25;;;;;;;24.88;17.58;;;;;;;;;;5016676;28;20100;-89
2022/03/13 06:02:51;;;;;;;22.95;16.80;;;;;;;;;;5003472;28;20512;-89
2022/03/13 06:05:18;;;;;;;23.02;16.63;;;;;;;;;;5016671;28;20188;-89
2022/03/13 06:07:48;;;;;;;26.45;17.55;;;;;;;;;;5015270;28;20457;-89
2022/03/13 06:10:14;;;;;;;28.33;18.50;;;;;;;;;;4997811;28;20038;-89
2022/03/13 06:12:40;;;;;;;23.23;17.02;;;;;;;;;;5016130;28;20045;-88
2022/03/13 06:15:07;;;;;;;21.85;15.85;;;;;;;;;;5013907;28;20644;-87
2022/03/13 06:17:38;;;;;;;23.83;17.00;;;;;;;;;;5016567;28;20048;-88
2022/03/13 06:20:04;;;;;;;25.30;17.38;;;;;;;;;;5034055;28;20054;-89
2022/03/13 06:22:30;;;;;;;23.20;16.45;;;;;;;;;;5033922;28;20509;-87
2022/03/13 06:24:56;;;;;;;22.38;16.08;;;;;;;;;;5033473;28;20109;-89
2022/03/13 06:27:22;;;;;;;25.65;17.10;;;;;;;;;;5034625;28;20041;-89
2022/03/13 06:29:48;;;;;;;23.83;16.67;;;;;;;;;;5033069;28;20419;-88
2022/03/13 06:32:15;;;;;;;24.80;17.13;;;;;;;;;;5033175;28;20041;-86
2022/03/13 06:34:41;;;;;;;23.02;15.93;;;;;;;;;;5033347;28;20037;-87
2022/03/13 06:37:08;;;;;;;22.95;16.70;;;;;;;;;;5032482;28;20080;-87
2022/03/13 06:39:34;;;;;;;22.70;15.63;;;;;;;;;;5032984;28;20518;-88
2022/03/13 06:42:00;;;;;;;25.00;16.42;;;;;;;;;;5024207;28;20073;-90
2022/03/13 06:44:26;;;;;;;26.15;17.10;;;;;;;;;;5030372;28;20034;-88
2022/03/13 06:46:52;;;;;;;22.38;16.13;;;;;;;;;;5030962;28;20038;-89
2022/03/13 06:49:18;;;;;;;24.23;16.92;;;;;;;;;;5039610;28;20049;-89
2022/03/13 06:51:44;;;;;;;22.42;16.73;;;;;;;;;;5032938;28;20103;-89
2022/03/13 06:54:11;;;;;;;20.88;16.00;;;;;;;;;;5020176;28;20053;-86
2022/03/13 06:56:38;;;;;;;23.92;17.50;;;;;;;;;;5028440;28;20050;-89
2022/03/13 06:59:04;;;;;;;21.67;16.20;;;;;;;;;;5032525;28;20044;-89
2022/03/13 07:01:31;;;;;;;22.70;16.15;;;;;;;;;;5032520;28;20040;-88
2022/03/13 07:03:57;;;;;;;21.23;15.68;;;;;;;;;;5033049;28;20080;-89
2022/03/13 07:06:23;;;;;;;23.33;16.08;;;;;;;;;;5032923;28;20045;-88
2022/03/13 07:08:49;;;;;;;23.17;16.05;;;;;;;;;;5014074;28;20033;-90
2022/03/13 07:11:17;;;;;;;25.90;17.23;;;;;;;;;;5016986;28;20052;-90
2022/03/13 07:13:45;;;;;;;22.73;16.58;;;;;;;;;;5032982;28;20392;-88
2022/03/13 07:16:12;;;;;;;22.85;16.23;;;;;;;;;;5032125;28;20046;-90
2022/03/13 07:18:39;;;;;;;22.52;16.55;;;;;;;;;;5029985;28;20069;-87
2022/03/13 07:21:05;;;;;;;21.92;16.58;;;;;;;;;;5014689;28;20103;-89
2022/03/13 07:23:31;;;;;;;23.58;15.45;;;;;;;;;;5018414;28;20034;-89
2022/03/13 07:25:57;;;;;;;23.10;16.52;;;;;;;;;;5032572;28;20406;-88
2022/03/13 07:28:23;;;;;;;24.55;16.38;;;;;;;;;;5031500;28;20041;-89
2022/03/13 07:30:49;;;;;;;22.25;15.38;;;;;;;;;;5030627;28;20633;-89
2022/03/13 07:33:15;;;;;;;22.00;15.55;;;;;;;;;;5030076;28;20046;-89
2022/03/13 07:35:41;;;;;;;22.08;15.25;;;;;;;;;;5028095;28;20505;-88
2022/03/13 07:38:08;;;;;;;25.33;16.40;;;;;;;;;;5038809;28;20532;-89
2022/03/13 07:40:34;;;;;;;22.83;15.85;;;;;;;;;;5033518;28;20048;-88
2022/03/13 07:43:00;;;;;;;21.23;15.98;;;;;;;;;;5033185;28;20128;-88
2022/03/13 07:45:26;;;;;;;22.30;15.95;;;;;;;;;;5032389;28;20600;-87
2022/03/13 07:47:55;;;;;;;22.60;15.90;;;;;;;;;;5016582;28;20138;-87
2022/03/13 07:50:21;;;;;;;19.35;14.38;;;;;;;;;;5025609;28;20046;-90
2022/03/13 07:52:47;;;;;;;22.90;16.05;;;;;;;;;;5033033;28;20045;-90
2022/03/13 07:55:14;;;;;;;19.58;14.50;;;;;;;;;;5046092;28;20073;-89
2022/03/13 07:57:40;;;;;;;20.88;15.68;;;;;;;;;;5034889;28;20049;-89
2022/03/13 08:00:07;;;;;;;22.00;15.68;;;;;;;;;;5027621;28;20044;-80
2022/03/13 08:02:33;;;;;;;20.65;15.18;;;;;;;;;;5018761;28;20049;-82
2022/03/13 08:04:59;;;;;;;20.33;15.30;;;;;;;;;;5016848;28;20050;-82
2022/03/13 08:07:25;;;;;;;21.58;15.13;;;;;;;;;;5042411;28;20042;-82
2022/03/13 08:09:51;;;;;;;20.92;14.40;;;;;;;;;;5026178;28;20084;-83
2022/03/13 08:12:17;;;;;;;20.85;14.95;;;;;;;;;;5026157;28;20052;-82
2022/03/13 08:14:43;;;;;;;21.98;14.23;;;;;;;;;;5038137;28;20065;-82
2022/03/13 08:17:09;;;;;;;21.08;14.55;;;;;;;;;;5015009;28;20132;-82
2022/03/13 08:19:35;;;;;;;21.08;15.25;;;;;;;;;;5037697;28;20413;-82
2022/03/13 08:22:01;;;;;;;18.92;15.30;;;;;;;;;;5058045;28;20183;-81
2022/03/13 08:24:28;;;;;;;19.73;13.77;;;;;;;;;;5018575;28;20096;-83
2022/03/13 08:26:54;;;;;;;22.38;15.18;;;;;;;;;;5026899;28;20057;-85
2022/03/13 08:29:20;;;;;;;19.90;15.10;;;;;;;;;;5027459;28;20038;-86
2022/03/13 08:31:46;;;;;;;20.90;14.07;;;;;;;;;;5011266;28;20045;-86
2022/03/13 08:34:12;;;;;;;19.83;14.70;;;;;;;;;;5026844;28;20558;-87
2022/03/13 08:36:46;;;;;;;19.67;14.32;;;;;;;;;;5029275;28;20052;-86
2022/03/13 08:39:12;;;;;;;19.75;13.55;;;;;;;;;;5021436;28;20041;-87
2022/03/13 08:41:38;;;;;;;20.05;13.85;;;;;;;;;;5037428;28;20052;-87
2022/03/13 08:44:04;;;;;;;19.73;14.40;;;;;;;;;;5056298;28;20033;-87
2022/03/13 08:46:30;;;;;;;21.02;14.48;;;;;;;;;;5053711;28;20040;-88
2022/03/13 08:48:56;;;;;;;18.40;14.00;;;;;;;;;;5031515;28;20033;-87
2022/03/13 08:51:23;;;;;;;20.55;14.43;;;;;;;;;;5050853;28;20043;-86
2022/03/13 08:53:50;;;;;;;20.95;15.15;;;;;;;;;;5019782;28;20038;-87
2022/03/13 08:56:16;;;;;;;21.50;14.95;;;;;;;;;;5036577;28;20260;-85
2022/03/13 08:58:42;;;;;;;17.95;13.55;;;;;;;;;;5042157;28;20045;-87
2022/03/13 09:01:09;;;;;;;19.67;15.10;;;;;;;;;;5031421;28;20029;-87
2022/03/13 09:03:35;;;;;;;18.73;13.70;;;;;;;;;;5038598;28;20090;-85
2022/03/13 09:06:01;;;;;;;18.25;13.63;;;;;;;;;;5035565;28;20041;-86
2022/03/13 09:08:27;;;;;;;19.33;13.38;;;;;;;;;;5020273;28;20122;-85
2022/03/13 09:10:53;;;;;;;18.73;13.85;;;;;;;;;;5036561;28;20045;-86
2022/03/13 09:13:22;;;;;;;19.67;14.18;;;;;;;;;;5018153;28;20083;-87
2022/03/13 09:15:49;;;;;;;19.58;14.10;;;;;;;;;;5038502;28;20164;-87
2022/03/13 09:18:15;;;;;;;18.48;13.90;;;;;;;;;;5019532;28;20425;-87
2022/03/13 09:20:41;;;;;;;18.58;13.77;;;;;;;;;;5046007;28;20041;-87
2022/03/13 09:23:07;;;;;;;17.40;13.02;;;;;;;;;;5026425;28;20057;-88
2022/03/13 09:25:34;;;;;;;19.35;13.65;;;;;;;;;;5020359;28;20127;-88
2022/03/13 09:28:00;;;;;;;18.35;13.85;;;;;;;;;;5028931;28;20045;-87
2022/03/13 09:30:26;;;;;;;19.08;12.80;;;;;;;;;;5036962;28;20064;-86
2022/03/13 09:32:52;;;;;;;17.38;13.60;;;;;;;;;;5031624;28;20057;-87
2022/03/13 09:35:18;;;;;;;17.08;13.40;;;;;;;;;;5019303;28;20045;-89
2022/03/13 09:37:44;;;;;;;16.65;12.77;;;;;;;;;;5029272;28;20042;-87
2022/03/13 09:40:11;;;;;;;17.60;12.88;;;;;;;;;;5026634;28;20092;-87
2022/03/13 09:42:37;;;;;;;19.17;14.25;;;;;;;;;;5031922;28;20033;-88
2022/03/13 09:45:04;;;;;;;18.08;13.80;;;;;;;;;;5034684;28;20048;-88
2022/03/13 09:47:30;;;;;;;21.35;13.65;;;;;;;;;;5025574;28;20519;-87
2022/03/13 09:49:56;;;;;;;19.27;13.82;;;;;;;;;;5059642;28;20048;-90
2022/03/13 09:52:22;;;;;;;16.65;12.77;;;;;;;;;;5043653;28;20044;-86
2022/03/13 09:54:48;;;;;;;18.83;13.80;;;;;;;;;;5039771;28;20385;-88
2022/03/13 09:57:14;;;;;;;18.60;13.95;;;;;;;;;;5033263;28;20056;-89
2022/03/13 09:59:43;;;;;;;18.27;13.45;;;;;;;;;;5038656;28;20052;-87
2022/03/13 10:02:09;;;;;;;17.42;13.63;;;;;;;;;;5042420;28;20037;-88
2022/03/13 10:04:35;;;;;;;17.85;13.63;;;;;;;;;;5054669;28;20029;-90
2022/03/13 10:07:12;;;;;;;19.85;14.13;;;;;;;;;;5034852;28;20441;-90
2022/03/13 10:09:40;;;;;;;20.08;13.55;;;;;;;;;;5014822;28;20394;-89
2022/03/13 10:12:19;;;;;;;17.15;13.10;;;;;;;;;;5036860;28;20037;-89
2022/03/13 10:15:02;;;;;;;19.67;14.38;;;;;;;;;;5022378;28;20108;-89
2022/03/13 10:17:29;;;;;;;18.90;14.30;;;;;;;;;;5018563;28;20394;-88
2022/03/13 10:19:56;;;;;;;17.88;13.48;;;;;;;;;;5029192;28;20038;-89
2022/03/13 10:22:30;;;;;;;17.75;13.45;;;;;;;;;;5001033;28;20046;-89
2022/03/13 10:24:56;;;;;;;18.70;13.13;;;;;;;;;;5017623;28;20100;-85
2022/03/13 10:27:22;;;;;;;17.55;13.25;;;;;;;;;;5014377;28;20038;-87
2022/03/13 10:29:48;;;;;;;18.88;13.20;;;;;;;;;;5016991;28;20066;-90
2022/03/13 10:32:14;;;;;;;18.45;13.52;;;;;;;;;;5012566;28;20125;-87
2022/03/13 10:34:41;;;;;;;18.60;13.60;;;;;;;;;;5014740;28;20069;-93
2022/03/13 10:37:08;;;;;;;19.45;13.65;;;;;;;;;;5017677;28;20413;-88
2022/03/13 10:39:34;;;;;;;17.73;13.57;;;;;;;;;;5016789;28;20124;-90
2022/03/13 10:42:03;;;;;;;16.63;12.82;;;;;;;;;;5018128;28;20037;-88
2022/03/13 10:44:31;;;;;;;17.40;13.77;;;;;;;;;;5016622;28;20505;-86
2022/03/13 10:47:10;;;;;;;18.20;13.75;;;;;;;;;;5018348;28;20080;-89
2022/03/13 10:49:40;;;;;;;17.48;14.50;;;;;;;;;;5021386;28;20077;-89
2022/03/13 10:52:31;;;;;;;17.70;14.05;;;;;;;;;;5012922;28;20106;-88
2022/03/13 10:55:01;;;;;;;17.95;12.90;;;;;;;;;;5019170;28;20185;-91
2022/03/13 10:57:27;;;;;;;17.50;13.48;;;;;;;;;;5015338;28;20168;-90
2022/03/13 11:00:06;;;;;;;16.70;13.43;;;;;;;;;;5044230;28;20504;-88
2022/03/13 11:02:32;;;;;;;17.88;13.93;;;;;;;;;;5034460;28;20516;-87
2022/03/13 11:05:00;;;;;;;20.45;13.82;;;;;;;;;;5015662;28;20034;-90
2022/03/13 11:07:27;;;;;;;19.02;14.20;;;;;;;;;;5032613;28;20124;-90
2022/03/13 11:09:54;;;;;;;17.52;13.82;;;;;;;;;;5032622;28;20052;-90
2022/03/13 11:12:20;;;;;;;15.60;12.32;;;;;;;;;;5032209;28;20413;-87
2022/03/13 11:14:57;;;;;;;17.52;13.73;;;;;;;;;;5028738;28;20049;-89
2022/03/13 11:17:27;;;;;;;18.65;14.30;;;;;;;;;;5013365;28;20045;-93
2022/03/13 11:19:55;;;;;;;16.98;13.90;;;;;;;;;;5012223;28;20050;-90
2022/03/13 11:22:22;;;;;;;18.35;13.95;;;;;;;;;;4999014;28;20069;-89
2022/03/13 11:24:48;;;;;;;18.08;12.65;;;;;;;;;;4995917;28;20077;-90
2022/03/13 11:27:15;;;;;;;16.95;13.85;;;;;;;;;;5014460;28;20042;-88
2022/03/13 11:29:54;;;;;;;17.15;14.18;;;;;;;;;;5014197;28;20055;-87
2022/03/13 11:32:36;;;;;;;17.75;13.95;;;;;;;;;;5015375;28;20041;-88
2022/03/13 11:35:08;;;;;;;17.08;14.60;;;;;;;;;;5032153;28;20107;-87
2022/03/13 11:37:34;;;;;;;18.25;14.65;;;;;;;;;;5025413;28;20040;-87
2022/03/13 11:40:01;;;;;;;16.10;13.23;;;;;;;;;;5047220;28;20494;-85
2022/03/13 11:42:27;;;;;;;18.00;14.10;;;;;;;;;;5038008;28;20572;-87
2022/03/13 11:44:53;;;;;;;16.85;13.18;;;;;;;;;;5049099;28;20037;-85
2022/03/13 11:47:20;;;;;;;15.68;12.80;;;;;;;;;;5048043;28;20619;-91
2022/03/13 11:49:46;;;;;;;16.80;14.13;;;;;;;;;;5048477;28;20434;-93
2022/03/13 11:52:12;;;;;;;16.42;14.57;;;;;;;;;;5033252;28;20080;-88
2022/03/13 11:54:52;;;;;;;17.13;14.00;;;;;;;;;;5033819;28;20041;-92
2022/03/13 11:57:19;;;;;;;17.67;13.77;;;;;;;;;;5008715;28;20041;-94
2022/03/13 11:59:49;;;;;;;16.58;12.88;;;;;;;;;;5015127;28;20124;-91
2022/03/13 12:02:35;;;;;;;16.00;13.80;;;;;;;;;;5018456;28;20052;-92
2022/03/13 12:05:20;;;;;;;17.17;13.80;;;;;;;;;;4994234;28;20053;-91
2022/03/13 12:07:46;;;;;;;;;;;;;;;;;;4997753;28;20037;-94
2022/03/13 12:10:31;;;;;;;17.30;14.43;;;;;;;;;;5011486;28;19924;-93
2022/03/13 12:12:57;;;;;;;;;;;;;;;;;;5012242;28;20100;-91
2022/03/13 12:15:22;;;;;;;18.38;14.50;;;;;;;;;;5018492;28;19921;-92
2022/03/13 12:17:49;;;;;;;17.25;14.70;;;;;;;;;;5033354;28;20516;-88
2022/03/13 12:20:26;;;;;;;17.38;14.25;;;;;;;;;;5034271;28;20052;-94
2022/03/13 12:22:59;;;;;;;17.73;13.70;;;;;;;;;;5070282;28;20502;-90
2022/03/13 12:25:25;;;;;;;17.48;14.02;;;;;;;;;;5042230;28;20029;-89
2022/03/13 12:27:52;;;;;;;18.67;14.07;;;;;;;;;;5018342;28;20246;-89
2022/03/13 12:30:25;;;;;;;17.10;14.02;;;;;;;;;;5031883;28;20077;-88
2022/03/13 12:32:57;;;;;;;16.85;14.05;;;;;;;;;;5013644;28;20046;-89
2022/03/13 12:35:24;;;;;;;18.92;14.20;;;;;;;;;;5030413;28;20111;-88
2022/03/13 12:37:55;;;;;;;20.70;14.35;;;;;;;;;;5027156;28;20077;-88
2022/03/13 12:40:22;;;;;;;18.17;14.43;;;;;;;;;;5011280;28;20084;-89
2022/03/13 12:42:53;;;;;;;17.73;14.35;;;;;;;;;;5022626;28;20099;-89
2022/03/13 12:45:20;;;;;;;17.83;14.38;;;;;;;;;;5014285;28;20045;-87
2022/03/13 12:47:49;;;;;;;16.58;13.63;;;;;;;;;;5029585;28;20517;-89
2022/03/13 12:50:17;;;;;;;17.58;14.48;;;;;;;;;;5030310;28;20171;-89
2022/03/13 12:52:44;;;;;;;18.65;15.02;;;;;;;;;;5023755;28;20045;-90
2022/03/13 12:55:11;;;;;;;18.83;15.00;;;;;;;;;;5026132;28;20434;-91
2022/03/13 12:57:38;;;;;;;17.92;14.73;;;;;;;;;;5010780;28;20045;-89
2022/03/13 13:00:07;;;;;;;18.25;14.48;;;;;;;;;;5023920;28;20048;-87
2022/03/13 13:02:34;;;;;;;16.63;14.15;;;;;;;;;;5010933;28;20034;-87
2022/03/13 13:05:03;;;;;;;17.70;14.90;;;;;;;;;;5028943;28;20038;-88
2022/03/13 13:07:33;;;;;;;16.30;13.45;;;;;;;;;;5027122;28;20041;-86
2022/03/13 13:09:59;;;;;;;18.88;14.63;;;;;;;;;;5020679;28;20041;-88
2022/03/13 13:12:30;;;;;;;17.50;14.75;;;;;;;;;;5026579;28;20049;-85
2022/03/13 13:14:57;;;;;;;18.73;13.32;;;;;;;;;;5024591;28;20052;-87
2022/03/13 13:17:25;;;;;;;18.05;14.02;;;;;;;;;;5028762;28;20063;-85
2022/03/13 13:19:52;;;;;;;15.43;13.45;;;;;;;;;;4998649;28;20124;-86
2022/03/13 13:22:26;;;;;;;18.35;14.70;;;;;;;;;;5027130;28;20065;-88
2022/03/13 13:24:59;;;;;;;16.30;13.53;;;;;;;;;;5026727;28;20042;-86
2022/03/13 13:27:34;;;;;;;17.92;14.57;;;;;;;;;;5018730;28;20338;-86
2022/03/13 13:30:14;;;;;;;19.05;14.00;;;;;;;;;;5010017;28;20494;-86
2022/03/13 13:32:47;;;;;;;18.13;14.43;;;;;;;;;;5009936;28;20495;-87
2022/03/13 13:35:13;;;;;;;18.73;13.48;;;;;;;;;;4995168;28;20511;-88
2022/03/13 13:37:58;;;;;;;18.85;14.32;;;;;;;;;;5028033;28;20054;-82
2022/03/13 13:40:28;;;;;;;17.02;13.48;;;;;;;;;;5010090;28;20133;-88
2022/03/13 13:42:55;;;;;;;18.00;14.18;;;;;;;;;;5019648;28;20044;-87
2022/03/13 13:45:21;;;;;;;18.52;14.43;;;;;;;;;;5041996;28;20129;-87
2022/03/13 13:47:47;;;;;;;17.50;14.65;;;;;;;;;;5019654;28;20526;-90
2022/03/13 13:50:15;;;;;;;17.60;14.13;;;;;;;;;;5027814;28;20513;-86
2022/03/13 13:52:42;;;;;;;19.75;14.60;;;;;;;;;;5028326;28;20045;-87
2022/03/13 13:55:21;;;;;;;18.42;14.48;;;;;;;;;;5035028;28;20037;-88
2022/03/13 13:57:47;;;;;;;17.48;14.32;;;;;;;;;;5048235;28;20033;-88
2022/03/13 14:00:29;;;;;;;16.88;13.40;;;;;;;;;;5015205;28;20492;-90
2022/03/13 14:02:55;;;;;;;19.40;15.30;;;;;;;;;;5032114;28;20401;-85
2022/03/13 14:05:23;;;;;;;18.20;13.77;;;;;;;;;;5044720;28;20041;-83
2022/03/13 14:07:49;;;;;;;18.65;14.07;;;;;;;;;;5037529;28;20042;-86
2022/03/13 14:10:15;;;;;;;17.58;13.70;;;;;;;;;;5030436;28;20048;-82
2022/03/13 14:12:42;;;;;;;18.98;14.80;;;;;;;;;;5034388;28;20132;-88
2022/03/13 14:15:09;;;;;;;17.67;13.88;;;;;;;;;;5010188;28;20037;-87
2022/03/13 14:17:35;;;;;;;19.02;15.05;;;;;;;;;;5032234;28;20037;-84
2022/03/13 14:20:01;;;;;;;18.00;13.57;;;;;;;;;;5032648;28;20089;-88